ADDS METAR Data INFO
IDs: Format: Raw Decoded Include TAF

Data at: 2054 UTC 24 Jun 2017

K46U 242020Z AUTO 00000KT 9SM CLR 24/03 A3030 RMK A01
K46U 242000Z AUTO 00000KT 9SM CLR 24/04 A3031 RMK A01
K46U 241940Z AUTO 00000KT 10SM CLR 23/03 A3031 RMK A01
K46U 241920Z AUTO 00000KT 9SM CLR 22/02 A3032 RMK A01
K46U 241900Z AUTO 22003KT 10SM CLR 22/04 A3033 RMK A01
K46U 241840Z AUTO VRB04KT 10SM CLR 22/03 A3033 RMK A01
K46U 241820Z AUTO 00000KT 10SM CLR 21/01 A3033 RMK A01
K46U 241800Z AUTO 00000KT 10SM CLR 20/05 A3033 RMK A01
K46U 241740Z AUTO 27003KT 10SM CLR 19/05 A3034 RMK A01
K46U 241720Z AUTO 24003KT 10SM CLR 18/05 A3034 RMK A01
K46U 241700Z AUTO VRB03KT 10SM CLR 17/05 A3034 RMK A01
K46U 241640Z AUTO VRB04KT 10SM CLR 16/05 A3035 RMK A01
K46U 241620Z AUTO VRB04KT 7SM CLR 15/05 A3035 RMK A01
K46U 241600Z AUTO VRB03KT 10SM CLR 15/04 A3036 RMK A01
K46U 241540Z AUTO VRB04KT 10SM CLR 14/03 A3036 RMK A01
K46U 241520Z AUTO VRB04KT 10SM CLR 13/03 A3036 RMK A01
K46U 241500Z AUTO VRB03KT 10SM CLR 12/04 A3037 RMK A01
K46U 241440Z AUTO VRB04KT 10SM CLR 11/04 A3037 RMK A01
K46U 241420Z AUTO VRB04KT 10SM CLR 10/03 A3037 RMK A01
K46U 241400Z AUTO 00000KT 10SM CLR 09/03 A3037 RMK A01
K46U 241340Z AUTO 06004KT 10SM CLR 08/02 A3037 RMK A01
K46U 241320Z AUTO 13007KT 10SM CLR 08/01 A3037 RMK A01
K46U 241300Z AUTO 13009KT 10SM CLR 07/01 A3037 RMK A01
K46U 241240Z AUTO 14007KT 10SM CLR 06/01 A3036 RMK A01
K46U 241220Z AUTO 13008KT 10SM CLR 06/01 A3036 RMK A01
K46U 241200Z AUTO 12007KT 10SM CLR 06/01 A3035 RMK A01
K46U 241140Z AUTO 08004G10KT 10SM CLR 06/01 A3035 RMK A01
K46U 241120Z AUTO 11009KT 10SM CLR 07/01 A3034 RMK A01
K46U 241100Z AUTO 12008G14KT 10SM CLR 07/01 A3034 RMK A01
K46U 241040Z AUTO 13006KT 10SM CLR 07/01 A3034 RMK A01
K46U 241020Z AUTO 13008KT 10SM CLR 07/01 A3033 RMK A01
K46U 241000Z AUTO 13007KT 10SM CLR 08/02 A3033 RMK A01
K46U 240940Z AUTO 13007KT 10SM CLR 07/01 A3033 RMK A01
K46U 240920Z AUTO 13009KT 10SM CLR 08/02 A3033 RMK A01
K46U 240900Z AUTO 15003KT 10SM CLR 08/02 A3033 RMK A01
K46U 240840Z AUTO 13003KT 10SM CLR 08/02 A3033 RMK A01
K46U 240820Z AUTO 13005KT 10SM CLR 08/02 A3033 RMK A01
K46U 240800Z AUTO 12007KT 10SM CLR 09/02 A3033 RMK A01
K46U 240740Z AUTO 13007KT 10SM CLR 09/02 A3033 RMK A01
K46U 240720Z AUTO 11003G10KT 10SM CLR 10/02 A3032 RMK A01
K46U 240700Z AUTO 13003KT 10SM CLR 09/03 A3032 RMK A01
K46U 240640Z AUTO 12008KT 10SM CLR 10/02 A3031 RMK A01
K46U 240620Z AUTO VRB04KT 10SM CLR 10/03 A3031 RMK A01
K46U 240600Z AUTO 16003KT 10SM CLR 10/02 A3031 RMK A01
K46U 240540Z AUTO VRB03KT 10SM CLR 11/03 A3031 RMK A01
K46U 240520Z AUTO 00000KT 10SM CLR 10/03 A3030 RMK A01
K46U 240500Z AUTO 09005KT 10SM CLR 12/03 A3030 RMK A01
K46U 240440Z AUTO 09003KT 10SM CLR 12/03 A3030 RMK A01
K46U 240420Z AUTO 10003KT 10SM CLR 12/04 A3029 RMK A01
K46U 240400Z AUTO 06003KT 10SM CLR 12/03 A3028 RMK A01
K46U 240340Z AUTO 10004KT 10SM CLR 14/02 A3027 RMK A01
K46U 240320Z AUTO 15003KT 10SM CLR 16/02 A3027 RMK A01
K46U 240300Z AUTO 00000KT 10SM CLR 17/05 A3026 RMK A01
K46U 240240Z AUTO 31006KT 10SM CLR 18/04 A3026 RMK A01
K46U 240220Z AUTO 33005KT 10SM CLR 19/00 A3026 RMK A01
K46U 240200Z AUTO 33007KT 10SM CLR 20/M00 A3025 RMK A01
K46U 240140Z AUTO 33007KT 10SM CLR 21/M00 A3026 RMK A01
K46U 240120Z AUTO 34010KT 10SM CLR 21/M01 A3025 RMK A01
K46U 240100Z AUTO 33011KT 10SM CLR 22/00 A3025 RMK A01
K46U 240040Z AUTO 33012KT 10SM CLR 22/M01 A3024 RMK A01
K46U 240020Z AUTO 33013KT 10SM CLR 22/M04 A3024 RMK A01
K46U 240000Z AUTO 33014KT 10SM CLR 23/M03 A3024 RMK A01
K46U 232340Z AUTO 33011KT 10SM CLR 23/M01 A3024 RMK A01
K46U 232320Z AUTO 33011KT 10SM CLR 23/M01 A3023 RMK A01
K46U 232300Z AUTO 12.04166712KT 10SM CLR 23/M00 A3023 RMK A01
K46U 232240Z AUTO 33013KT 10SM CLR 23/01 A3024 RMK A01
K46U 232220Z AUTO 32013KT 10SM CLR 23/01 A3024 RMK A01
K46U 232200Z AUTO 32013KT 10SM CLR 23/02 A3023 RMK A01
K46U 232140Z AUTO 32012KT 10SM CLR 23/03 A3023 RMK A01
K46U 232120Z AUTO 32011KT 10SM CLR 22/01 A3023 RMK A01
K46U 232100Z AUTO 32010G15KT 300V360 10SM CLR 23/01 A3024 RMK A01
K46U 232040Z AUTO 32010KT 10SM CLR 22/01 A3024 RMK A01
K46U 232020Z AUTO 31010KT 9SM CLR 22/02 A3024 RMK A01
K46U 232000Z AUTO 32006KT 10SM CLR 21/00 A3025 RMK A01
K46U 231940Z AUTO VRB05KT 10SM CLR 21/03 A3025 RMK A01
K46U 231920Z AUTO VRB03KT 10SM CLR 21/03 A3025 RMK A01
K46U 231900Z AUTO VRB04KT 10SM CLR 20/02 A3025 RMK A01
K46U 231840Z AUTO 23004KT 10SM CLR 20/03 A3026 RMK A01
K46U 231820Z AUTO 24003KT 10SM CLR 19/02 A3026 RMK A01
K46U 231800Z AUTO 00000KT 10SM CLR 19/01 A3027 RMK A01
K46U 231740Z AUTO 22003KT 10SM CLR 18/04 A3028 RMK A01
K46U 231720Z AUTO VRB03KT 10SM CLR 18/04 A3028 RMK A01
K46U 231700Z AUTO 23004KT 10SM CLR 17/05 A3028 RMK A01
K46U 231640Z AUTO VRB03KT 10SM CLR 17/05 A3029 RMK A01
K46U 231620Z AUTO VRB04KT 10SM CLR 15/04 A3029 RMK A01
K46U 231600Z AUTO 24004KT 10SM CLR 15/05 A3029 RMK A01
K46U 231540Z AUTO 24003KT 10SM CLR 14/04 A3029 RMK A01
K46U 231520Z AUTO 22004KT 10SM CLR 13/05 A3030 RMK A01
K46U 231500Z AUTO VRB04KT 10SM CLR 12/06 A3029 RMK A01
K46U 231440Z AUTO VRB06KT 10SM CLR 11/06 A3030 RMK A01
K46U 231420Z AUTO VRB04KT 10SM CLR 11/05 A3030 RMK A01
K46U 231400Z AUTO 00000KT 10SM CLR 11/05 A3029 RMK A01
K46U 231340Z AUTO 00000KT 10SM CLR 09/05 A3029 RMK A01
K46U 231320Z AUTO 00000KT 10SM CLR 08/05 A3029 RMK A01
K46U 231300Z AUTO 06004KT 10SM CLR 07/04 A3028 RMK A01
K46U 231240Z AUTO 10004KT 10SM CLR 08/02 A3027 RMK A01
K46U 231220Z AUTO 07003KT 10SM CLR 06/04 A3027 RMK A01
K46U 231200Z AUTO 00000KT 10SM CLR 05/04 A3027 RMK A01
K46U 231140Z AUTO 00000KT 10SM CLR 05/04 A3026 RMK A01
K46U 231120Z AUTO 00000KT 10SM CLR 05/04 A3026 RMK A01
K46U 231100Z AUTO 00000KT 10SM CLR 07/05 A3026 RMK A01
K46U 231040Z AUTO 00000KT 10SM CLR 07/05 A3025 RMK A01
K46U 231020Z AUTO 00000KT 10SM CLR 06/04 A3025 RMK A01
K46U 231000Z AUTO 00000KT 10SM CLR 08/04 A3024 RMK A01
K46U 230940Z AUTO 00000KT 10SM CLR 08/05 A3024 RMK A01
K46U 230920Z AUTO 13003KT 10SM CLR 08/05 A3024 RMK A01
K46U 230900Z AUTO 09003KT 10SM CLR 09/05 A3024 RMK A01


Page loaded:  20:54 UTC  |   01:54 PM Pacific  |   02:54 PM Mountain  |   03:54 PM Central  |   04:54 PM Eastern

 

ADVISORIES

FORECASTS

FORECASTS

OBSERVATIONS

USER TOOLS

ABOUT US